createdAt,value
2022-10-23T00:00:36.616Z,7.63
2022-10-23T00:01:40.042Z,8.68
2022-10-23T00:02:43.818Z,6.84
2022-10-23T00:03:47.022Z,8.12
2022-10-23T00:04:50.310Z,8.49
2022-10-23T00:05:53.595Z,9.11
2022-10-23T00:06:56.476Z,6.88
2022-10-23T00:07:59.747Z,5.78
2022-10-23T00:09:03.546Z,7.99
2022-10-23T00:10:06.622Z,6.92
2022-10-23T00:11:10.022Z,8.45
2022-10-23T00:12:13.292Z,6.54
2022-10-23T00:13:16.472Z,7.15
2022-10-23T00:14:19.355Z,8.06
2022-10-23T00:15:22.438Z,7.62
2022-10-23T00:16:25.510Z,6.04
2022-10-23T00:17:28.985Z,7.21
2022-10-23T00:18:32.089Z,6.55
2022-10-23T00:19:35.064Z,6.78
2022-10-23T00:20:37.927Z,6.29
2022-10-23T00:21:41.314Z,6.12
2022-10-23T00:22:44.294Z,5.96
2022-10-23T00:23:47.205Z,10.19
2022-10-23T00:24:50.045Z,6.52
2022-10-23T00:25:53.539Z,5.34
2022-10-23T00:26:56.819Z,7.09
2022-10-23T00:28:00.406Z,7.52
2022-10-23T00:29:03.603Z,6.85
2022-10-23T00:30:06.662Z,7.69
2022-10-23T00:31:09.845Z,5.35
2022-10-23T00:32:12.962Z,6.60
2022-10-23T00:33:15.805Z,7.20
2022-10-23T00:34:18.777Z,5.82
2022-10-23T00:35:22.164Z,5.45
2022-10-23T00:36:25.458Z,4.70
2022-10-23T00:37:28.241Z,4.69
2022-10-23T00:38:31.300Z,4.43
2022-10-23T00:39:34.484Z,5.01
2022-10-23T00:40:37.663Z,6.48
2022-10-23T00:41:40.855Z,3.77
2022-10-23T00:42:44.250Z,4.34
2022-10-23T00:43:47.304Z,6.45
2022-10-23T00:44:50.397Z,5.28
2022-10-23T00:45:53.272Z,4.92
2022-10-23T00:46:56.367Z,6.20
2022-10-23T00:47:59.526Z,5.92
2022-10-23T00:49:02.860Z,5.78
2022-10-23T00:50:05.689Z,7.25
2022-10-23T00:51:08.965Z,7.47
2022-10-23T00:52:12.167Z,10.09
2022-10-23T00:53:15.345Z,10.34
2022-10-23T00:54:25.846Z,10.21
2022-10-23T00:55:22.926Z,10.89
2022-10-23T00:56:26.416Z,8.10
2022-10-23T00:58:32.067Z,11.74
2022-10-23T00:59:34.843Z,7.94
2022-10-23T01:00:37.669Z,7.81
2022-10-23T01:01:40.729Z,7.00
2022-10-23T01:02:43.916Z,5.35
2022-10-23T01:03:47.398Z,5.62
2022-10-23T01:04:50.749Z,6.42
2022-10-23T01:05:55.153Z,6.06
2022-10-23T01:06:58.339Z,6.09
2022-10-23T01:08:02.142Z,8.07
2022-10-23T01:09:05.321Z,8.08
2022-10-23T01:10:08.595Z,11.12
2022-10-23T01:11:11.785Z,9.52
2022-10-23T01:12:14.550Z,8.30
2022-10-23T01:13:17.433Z,7.88
2022-10-23T01:14:20.662Z,6.89
2022-10-23T01:15:23.689Z,6.04
2022-10-23T01:16:26.773Z,7.17
2022-10-23T01:17:29.848Z,5.32
2022-10-23T01:18:32.695Z,5.99
2022-10-23T01:19:35.498Z,7.07
2022-10-23T01:20:42.074Z,6.34
2022-10-23T01:21:45.245Z,7.75
2022-10-23T01:22:48.619Z,6.13
2022-10-23T01:23:51.804Z,6.01
2022-10-23T01:24:54.992Z,5.41
2022-10-23T01:25:58.501Z,5.52
2022-10-23T01:27:01.456Z,6.76
2022-10-23T01:28:04.640Z,5.65
2022-10-23T01:29:07.815Z,4.76
2022-10-23T01:30:10.799Z,5.66
2022-10-23T01:31:13.979Z,4.96
2022-10-23T01:32:16.883Z,6.48
2022-10-23T01:33:19.524Z,3.91
2022-10-23T01:34:23.326Z,4.02
2022-10-23T01:35:26.299Z,5.69
2022-10-23T01:36:29.486Z,6.81
2022-10-23T01:37:32.565Z,4.99
2022-10-23T01:38:35.835Z,4.28
2022-10-23T01:39:38.939Z,4.64
2022-10-23T01:40:41.901Z,4.78
2022-10-23T01:41:44.514Z,5.48
2022-10-23T01:42:47.949Z,6.07
2022-10-23T01:43:51.045Z,7.51
2022-10-23T01:44:55.168Z,6.61
2022-10-23T01:45:58.626Z,6.29
2022-10-23T01:47:02.402Z,6.83
2022-10-23T01:48:05.307Z,5.92
2022-10-23T01:49:13.085Z,7.02
2022-10-23T01:50:16.404Z,7.31
2022-10-23T01:51:19.348Z,7.57
2022-10-23T01:52:23.080Z,6.45
2022-10-23T01:53:25.924Z,6.82
2022-10-23T01:54:29.003Z,6.04
2022-10-23T01:55:32.096Z,5.63
2022-10-23T01:56:35.569Z,6.06
2022-10-23T01:57:41.848Z,6.11
2022-10-23T01:58:45.308Z,5.64
2022-10-23T01:59:48.795Z,5.09
2022-10-23T02:00:52.077Z,5.18
2022-10-23T02:02:01.829Z,4.29
2022-10-23T02:03:05.200Z,3.68
2022-10-23T02:04:08.818Z,3.70
2022-10-23T02:05:12.181Z,5.02
2022-10-23T02:06:15.365Z,7.00
2022-10-23T02:07:18.444Z,5.02
2022-10-23T02:08:22.035Z,6.11
2022-10-23T02:09:25.319Z,7.07
2022-10-23T02:10:29.218Z,6.62
2022-10-23T02:11:32.189Z,5.47
2022-10-23T02:12:36.402Z,6.03
2022-10-23T02:13:41.236Z,5.69
2022-10-23T02:14:44.809Z,6.06
2022-10-23T02:15:47.787Z,7.01
2022-10-23T02:16:50.965Z,7.80
2022-10-23T02:17:57.145Z,7.04
2022-10-23T02:18:59.883Z,9.16
2022-10-23T02:20:02.977Z,7.60
2022-10-23T02:21:05.948Z,5.70
2022-10-23T02:22:09.236Z,6.60
2022-10-23T02:23:19.486Z,5.34
2022-10-23T02:24:24.927Z,4.37
2022-10-23T02:25:27.780Z,5.42
2022-10-23T02:26:30.968Z,6.41
2022-10-23T02:27:33.845Z,6.10
2022-10-23T02:28:37.136Z,5.55
2022-10-23T02:29:44.511Z,4.95
2022-10-23T02:30:47.686Z,5.02
2022-10-23T02:31:51.998Z,5.68
2022-10-23T02:32:57.431Z,5.36
2022-10-23T02:34:00.407Z,6.55
2022-10-23T02:35:03.905Z,6.86
2022-10-23T02:36:07.800Z,5.32
2022-10-23T02:37:11.366Z,6.48
2022-10-23T02:38:15.053Z,5.20
2022-10-23T02:39:18.782Z,6.33
2022-10-23T02:40:21.851Z,6.63
2022-10-23T02:41:25.136Z,5.83
2022-10-23T02:43:49.424Z,4.79
2022-10-23T02:45:04.861Z,6.24
2022-10-23T02:46:14.945Z,6.03
2022-10-23T02:47:27.968Z,4.89
2022-10-23T02:48:31.048Z,5.41
2022-10-23T02:49:36.872Z,6.56
2022-10-23T02:50:41.352Z,4.71
2022-10-23T02:51:47.192Z,5.00
2022-10-23T02:52:58.918Z,5.42
2022-10-23T02:54:03.637Z,4.29
2022-10-23T02:55:10.596Z,5.53
2022-10-23T02:56:17.176Z,5.06
2022-10-23T02:57:19.927Z,4.98
2022-10-23T02:58:23.331Z,6.36
2022-10-23T02:59:34.030Z,7.08
2022-10-23T03:00:37.306Z,7.85
2022-10-23T03:01:55.395Z,7.28
2022-10-23T03:03:10.314Z,7.02
2022-10-23T03:04:20.502Z,7.82
2022-10-23T03:05:23.165Z,8.30
2022-10-23T03:07:49.397Z,9.01
2022-10-23T03:08:52.534Z,8.04
2022-10-23T03:09:55.792Z,7.91
2022-10-23T03:11:00.110Z,6.25
2022-10-23T03:12:03.045Z,6.66
2022-10-23T03:13:10.699Z,7.13
2022-10-23T03:15:35.396Z,6.13
2022-10-23T03:16:38.303Z,7.99
2022-10-23T03:19:01.835Z,8.27
2022-10-23T03:20:05.548Z,7.78
2022-10-23T03:21:09.459Z,5.75
2022-10-23T03:22:12.661Z,7.37
2022-10-23T03:23:15.439Z,9.01
2022-10-23T03:24:19.523Z,8.13
2022-10-23T03:25:23.216Z,7.32
2022-10-23T03:26:34.624Z,7.98
2022-10-23T03:27:38.386Z,7.19
2022-10-23T03:28:44.645Z,8.34
2022-10-23T03:29:48.944Z,6.56
2022-10-23T03:30:56.538Z,6.89
2022-10-23T03:32:07.466Z,7.06
2022-10-23T03:33:11.088Z,8.05
2022-10-23T03:34:14.780Z,6.33
2022-10-23T03:35:17.554Z,6.56
2022-10-23T03:36:27.803Z,8.16
2022-10-23T03:38:51.881Z,7.72
2022-10-23T03:39:54.961Z,9.60
2022-10-23T03:41:00.548Z,8.58
2022-10-23T03:42:17.098Z,9.82
2022-10-23T03:44:44.702Z,8.15
2022-10-23T03:45:50.810Z,10.38
2022-10-23T03:46:54.196Z,11.56
2022-10-23T03:47:58.406Z,11.02
2022-10-23T03:49:03.427Z,10.81
2022-10-23T03:51:26.881Z,10.59
2022-10-23T03:52:30.277Z,11.75
2022-10-23T03:53:36.500Z,11.32
2022-10-23T03:54:53.536Z,10.79
2022-10-23T03:55:57.052Z,10.39
2022-10-23T03:57:00.312Z,11.20
2022-10-23T03:58:03.809Z,12.77
2022-10-23T03:59:06.766Z,10.65
2022-10-23T04:00:24.389Z,10.66
2022-10-23T04:01:33.564Z,13.78
2022-10-23T04:02:36.892Z,13.48
2022-10-23T04:03:40.706Z,11.89
2022-10-23T04:04:43.982Z,10.24
2022-10-23T04:05:48.239Z,13.13
2022-10-23T04:06:51.031Z,14.69
2022-10-23T04:07:54.143Z,16.68
2022-10-23T04:09:00.110Z,16.23
2022-10-23T04:10:03.580Z,14.51
2022-10-23T04:11:06.854Z,15.56
2022-10-23T04:12:09.920Z,12.52
2022-10-23T04:13:23.079Z,11.62
2022-10-23T04:14:39.582Z,13.93
2022-10-23T04:15:46.623Z,13.83
2022-10-23T04:16:49.907Z,13.89
2022-10-23T04:20:44.867Z,14.94
2022-10-23T04:21:59.828Z,13.43
2022-10-23T04:23:07.155Z,12.70
2022-10-23T04:24:15.575Z,14.34
2022-10-23T04:25:25.925Z,13.16
2022-10-23T04:27:52.572Z,13.10
2022-10-23T04:28:58.086Z,13.46
2022-10-23T04:30:18.473Z,15.79
2022-10-23T04:34:19.234Z,15.89
2022-10-23T04:36:46.159Z,17.66
2022-10-23T04:37:54.570Z,16.80
2022-10-23T04:38:58.162Z,15.49
2022-10-23T04:40:01.332Z,14.81
2022-10-23T04:41:07.946Z,16.16
2022-10-23T04:46:28.992Z,19.35
2022-10-23T04:47:32.945Z,15.70
2022-10-23T04:50:14.128Z,18.54
2022-10-23T04:52:47.301Z,20.16
2022-10-23T05:09:51.198Z,21.60
2022-10-23T05:12:17.464Z,22.99
2022-10-23T05:25:34.855Z,22.88
2022-10-23T05:27:59.269Z,22.40
2022-10-23T08:10:35.858Z,31.18
2022-10-23T08:14:41.833Z,27.29
2022-10-23T08:21:31.106Z,26.50
2022-10-23T08:32:18.320Z,22.30
2022-10-23T10:09:09.181Z,29.07
2022-10-23T10:10:21.948Z,31.40
2022-10-23T10:12:51.702Z,30.50
2022-10-23T10:21:00.779Z,31.86
2022-10-23T10:25:00.564Z,29.56
2022-10-23T10:31:31.093Z,31.02
2022-10-23T10:36:41.167Z,27.53
2022-10-23T10:47:32.008Z,25.64
2022-10-23T10:51:34.828Z,24.00
2022-10-23T11:00:43.472Z,24.71
2022-10-23T11:33:47.944Z,23.50
2022-10-23T11:35:07.275Z,24.46
2022-10-23T11:36:12.007Z,23.63
2022-10-23T11:37:22.660Z,25.61
2022-10-23T11:39:50.201Z,22.54
2022-10-23T11:40:58.301Z,26.04
2022-10-23T11:44:55.185Z,25.90
2022-10-23T11:53:14.290Z,27.36
2022-10-23T11:56:59.406Z,26.71
2022-10-23T12:04:22.017Z,31.56
2022-10-23T12:06:35.484Z,29.58
2022-10-23T12:07:40.088Z,28.25
2022-10-23T12:10:04.797Z,29.85
2022-10-23T12:11:09.065Z,31.86
2022-10-23T12:12:16.967Z,29.20
2022-10-23T12:13:25.362Z,26.82
2022-10-23T12:20:02.022Z,29.74
2022-10-23T12:25:13.069Z,32.00
2022-10-23T12:26:18.934Z,30.12
2022-10-23T12:28:45.975Z,27.94
2022-10-23T12:29:51.606Z,30.45
2022-10-23T12:30:56.217Z,30.42
2022-10-23T12:32:06.092Z,28.95
2022-10-23T12:33:09.647Z,28.13
2022-10-23T12:34:13.849Z,27.45
2022-10-23T12:35:17.345Z,28.96
2022-10-23T12:36:21.229Z,27.22
2022-10-23T12:37:30.670Z,26.48
2022-10-23T12:38:37.534Z,26.05
2022-10-23T12:39:48.487Z,27.52
2022-10-23T12:40:58.154Z,27.16
2022-10-23T12:42:06.269Z,26.95
2022-10-23T12:43:10.027Z,29.05
2022-10-23T12:44:19.463Z,27.04
2022-10-23T12:45:26.418Z,26.85
2022-10-23T12:46:32.685Z,27.20
2022-10-23T12:47:39.851Z,27.54
2022-10-23T12:48:48.689Z,25.95
2022-10-23T12:49:57.385Z,24.59
2022-10-23T12:53:45.220Z,25.93
2022-10-23T12:54:55.309Z,25.09
2022-10-23T12:56:13.013Z,27.51
2022-10-23T12:57:28.583Z,26.24
2022-10-23T12:58:43.861Z,25.28
2022-10-23T12:59:59.260Z,28.50
2022-10-23T13:02:35.604Z,22.85
2022-10-23T13:03:40.806Z,20.99
2022-10-23T13:04:45.527Z,26.71
2022-10-23T13:05:56.557Z,23.97
2022-10-23T13:07:11.500Z,24.60
2022-10-23T13:08:16.470Z,31.60
2022-10-23T13:12:11.613Z,26.11
2022-10-23T13:13:22.822Z,27.30
2022-10-23T13:14:26.635Z,26.77
2022-10-23T13:16:53.263Z,30.77
2022-10-23T13:18:04.469Z,28.08
2022-10-23T13:19:20.419Z,24.72
2022-10-23T13:20:30.990Z,29.63
2022-10-23T13:22:44.694Z,28.06
2022-10-23T13:25:11.365Z,25.02
2022-10-23T13:26:15.341Z,26.52
2022-10-23T13:27:19.355Z,27.68
2022-10-23T13:28:24.517Z,28.79
2022-10-23T13:29:28.092Z,25.57
2022-10-23T13:30:32.270Z,24.03
2022-10-23T13:31:39.356Z,28.01
2022-10-23T13:32:43.682Z,23.95
2022-10-23T13:33:53.835Z,22.43
2022-10-23T13:35:04.377Z,24.75
2022-10-23T13:36:11.545Z,25.16
2022-10-23T13:37:17.079Z,24.40
2022-10-23T13:38:32.794Z,24.12
2022-10-23T13:39:37.682Z,25.04
2022-10-23T13:40:43.100Z,25.66
2022-10-23T13:41:55.104Z,25.26
2022-10-23T13:42:59.098Z,24.36
2022-10-23T13:44:12.745Z,24.54
2022-10-23T13:45:19.402Z,24.24
2022-10-23T13:46:22.882Z,27.13
2022-10-23T13:47:26.372Z,24.81
2022-10-23T13:49:53.822Z,22.52
2022-10-23T13:50:59.673Z,21.65
2022-10-23T13:52:04.596Z,21.02
2022-10-23T13:53:09.638Z,19.69
2022-10-23T13:54:24.191Z,17.45
2022-10-23T13:55:27.543Z,13.61
2022-10-23T13:56:30.939Z,11.53
2022-10-23T13:57:46.919Z,12.00
2022-10-23T13:59:05.249Z,13.78
2022-10-23T14:00:14.085Z,12.19
2022-10-23T14:01:19.675Z,14.02
2022-10-23T14:02:22.987Z,11.33
2022-10-23T14:03:26.576Z,11.67
2022-10-23T14:04:30.174Z,10.78
2022-10-23T14:06:57.625Z,9.38
2022-10-23T14:08:18.119Z,9.82
2022-10-23T14:09:32.480Z,10.27
2022-10-23T14:10:35.744Z,10.58
2022-10-23T14:11:40.772Z,10.57
2022-10-23T14:12:44.822Z,11.97
2022-10-23T14:13:51.171Z,11.47
2022-10-23T14:14:55.109Z,10.18
2022-10-23T14:15:58.638Z,8.81
2022-10-23T14:17:07.664Z,8.92
2022-10-23T14:18:11.748Z,10.63
2022-10-23T14:19:16.152Z,10.99
2022-10-23T14:20:30.238Z,11.93
2022-10-23T14:21:36.896Z,13.03
2022-10-23T14:22:40.433Z,11.24
2022-10-23T14:23:44.144Z,9.60
2022-10-23T14:24:49.578Z,11.48
2022-10-23T14:25:54.391Z,10.20
2022-10-23T14:27:02.489Z,10.25
2022-10-23T14:28:13.763Z,10.09
2022-10-23T14:30:39.476Z,10.27
2022-10-23T14:31:49.292Z,10.57
2022-10-23T14:32:55.470Z,12.44
2022-10-23T14:33:59.366Z,12.34
2022-10-23T14:35:11.246Z,9.63
2022-10-23T14:36:14.892Z,11.75
2022-10-23T14:37:19.772Z,13.56
2022-10-23T14:41:12.112Z,8.37
2022-10-23T14:42:15.921Z,12.42
2022-10-23T14:43:20.219Z,12.56
2022-10-23T14:44:23.706Z,9.41
2022-10-23T14:45:27.195Z,9.78
2022-10-23T14:46:30.983Z,11.20
2022-10-23T14:47:34.371Z,8.34
2022-10-23T14:48:38.274Z,7.16
2022-10-23T14:49:41.862Z,8.18
2022-10-23T14:50:45.354Z,7.99
2022-10-23T14:51:48.642Z,9.00
2022-10-23T14:52:52.281Z,8.91
2022-10-23T14:53:58.712Z,8.01
2022-10-23T14:55:00.756Z,4.91
2022-10-23T14:56:04.537Z,6.39
2022-10-23T14:57:07.697Z,8.26
2022-10-23T14:58:11.212Z,9.14
2022-10-23T14:59:14.805Z,8.94
2022-10-23T15:00:17.890Z,7.61
2022-10-23T15:01:21.210Z,8.37
2022-10-23T15:02:25.062Z,10.49
2022-10-23T15:03:28.452Z,13.20
2022-10-23T15:04:32.042Z,9.88
2022-10-23T15:05:35.120Z,12.03
2022-10-23T15:06:38.609Z,12.28
2022-10-23T15:07:41.899Z,9.92
2022-10-23T15:08:45.397Z,13.21
2022-10-23T15:09:48.678Z,11.49
2022-10-23T15:10:52.768Z,9.09
2022-10-23T15:11:56.763Z,11.12
2022-10-23T15:12:59.950Z,11.21
2022-10-23T15:14:03.452Z,11.42
2022-10-23T15:15:09.083Z,10.99
2022-10-23T15:16:12.176Z,12.37
2022-10-23T15:17:15.999Z,12.01
2022-10-23T15:18:20.261Z,12.28
2022-10-23T15:19:23.240Z,9.13
2022-10-23T15:20:27.046Z,9.52
2022-10-23T15:21:30.935Z,11.29
2022-10-23T15:22:34.241Z,10.35
2022-10-23T15:23:37.604Z,7.48
2022-10-23T15:24:40.805Z,9.01
2022-10-23T15:25:44.085Z,9.33
2022-10-23T15:26:47.563Z,10.32
2022-10-23T15:27:51.054Z,9.66
2022-10-23T15:28:54.957Z,12.26
2022-10-23T15:29:58.747Z,11.31
2022-10-23T15:31:02.543Z,11.07
2022-10-23T15:32:06.244Z,8.46
2022-10-23T15:33:09.731Z,9.49
2022-10-23T15:34:13.624Z,9.23
2022-10-23T15:35:17.167Z,9.23
2022-10-23T15:36:21.226Z,9.32
2022-10-23T15:37:24.707Z,8.59
2022-10-23T15:38:27.992Z,7.69
2022-10-23T15:39:31.598Z,9.88
2022-10-23T15:40:35.274Z,9.04
2022-10-23T15:41:38.869Z,6.58
2022-10-23T15:42:42.375Z,8.54
2022-10-23T15:43:46.351Z,8.96
2022-10-23T15:44:49.954Z,8.85
2022-10-23T15:45:53.436Z,7.87
2022-10-23T15:46:56.457Z,7.89
2022-10-23T15:47:59.501Z,6.51
2022-10-23T15:49:03.294Z,7.58
2022-10-23T15:50:07.094Z,8.50
2022-10-23T15:51:10.582Z,7.34
2022-10-23T15:52:14.120Z,5.91
2022-10-23T15:53:17.455Z,7.89
2022-10-23T15:54:21.374Z,6.28
2022-10-23T15:55:24.945Z,7.52
2022-10-23T15:56:28.123Z,7.86
2022-10-23T15:57:31.608Z,10.86
2022-10-23T15:58:34.798Z,12.57
2022-10-23T15:59:38.078Z,7.56
2022-10-23T16:00:41.470Z,6.34
2022-10-23T16:01:45.598Z,7.56
2022-10-23T16:02:48.954Z,7.44
2022-10-23T16:03:53.155Z,8.28
2022-10-23T16:04:56.296Z,6.21
2022-10-23T16:05:59.729Z,7.85
2022-10-23T16:07:02.713Z,9.03
2022-10-23T16:08:06.607Z,5.89
2022-10-23T16:09:10.406Z,5.98
2022-10-23T16:10:13.983Z,5.81
2022-10-23T16:11:17.684Z,6.38
2022-10-23T16:12:21.172Z,6.18
2022-10-23T16:13:24.767Z,6.77
2022-10-23T16:14:28.358Z,7.62
2022-10-23T16:15:31.645Z,8.39
2022-10-23T16:16:35.637Z,4.69
2022-10-23T16:17:38.615Z,8.15
2022-10-23T16:18:42.209Z,7.36
2022-10-23T16:19:45.697Z,5.74
2022-10-23T16:20:48.776Z,6.98
2022-10-23T16:21:51.650Z,5.54
2022-10-23T16:22:54.936Z,6.36
2022-10-23T16:23:58.223Z,6.78
2022-10-23T16:25:01.915Z,7.05
2022-10-23T16:26:04.898Z,6.61
2022-10-23T16:27:08.490Z,6.37
2022-10-23T16:28:12.278Z,6.21
2022-10-23T16:29:15.668Z,6.90
2022-10-23T16:30:19.057Z,8.03
2022-10-23T16:31:22.646Z,8.85
2022-10-23T16:32:26.234Z,8.89
2022-10-23T16:33:29.319Z,10.12
2022-10-23T16:34:32.596Z,9.84
2022-10-23T16:35:35.981Z,8.14
2022-10-23T16:36:39.673Z,9.51
2022-10-23T16:37:43.362Z,8.11
2022-10-23T16:38:46.660Z,8.31
2022-10-23T16:39:49.938Z,12.54
2022-10-23T16:40:53.028Z,8.17
2022-10-23T16:41:56.609Z,9.12
2022-10-23T16:42:59.998Z,8.83
2022-10-23T16:44:03.791Z,9.12
2022-10-23T16:45:07.694Z,9.96
2022-10-23T16:46:11.185Z,9.76
2022-10-23T16:47:15.383Z,7.45
2022-10-23T16:48:18.777Z,8.21
2022-10-23T16:49:23.191Z,8.08
2022-10-23T16:50:27.530Z,7.41
2022-10-23T16:51:31.195Z,6.79
2022-10-23T16:52:34.675Z,9.95
2022-10-23T16:53:38.260Z,6.76
2022-10-23T16:54:41.651Z,6.27
2022-10-23T16:55:45.454Z,8.08
2022-10-23T16:56:49.039Z,9.24
2022-10-23T16:57:52.627Z,8.52
2022-10-23T16:58:55.481Z,6.71
2022-10-23T16:59:58.478Z,7.71
2022-10-23T17:01:02.362Z,6.32
2022-10-23T17:02:05.970Z,7.65
2022-10-23T17:03:09.673Z,7.61
2022-10-23T17:04:13.061Z,7.91
2022-10-23T17:05:16.340Z,7.30
2022-10-23T17:06:20.032Z,8.31
2022-10-23T17:07:24.105Z,10.02
2022-10-23T17:08:27.937Z,7.45
2022-10-23T17:09:30.702Z,9.05
2022-10-23T17:10:34.086Z,11.24
2022-10-23T17:11:36.956Z,6.75
2022-10-23T17:12:39.768Z,7.08
2022-10-23T17:13:42.920Z,6.02
2022-10-23T17:14:46.205Z,6.66
2022-10-23T17:15:50.007Z,6.78
2022-10-23T17:16:53.385Z,8.34
2022-10-23T17:17:56.463Z,6.75
2022-10-23T17:19:00.157Z,7.47
2022-10-23T17:20:03.857Z,7.17
2022-10-23T17:21:07.752Z,7.62
2022-10-23T17:22:11.862Z,8.94
2022-10-23T17:23:15.352Z,9.98
2022-10-23T17:24:19.156Z,7.79
2022-10-23T17:25:23.143Z,11.56
2022-10-23T17:26:26.637Z,7.76
2022-10-23T17:27:30.129Z,7.52
2022-10-23T17:28:33.912Z,7.09
2022-10-23T17:29:37.412Z,8.28
2022-10-23T17:30:40.792Z,11.13
2022-10-23T17:31:44.180Z,12.04
2022-10-23T17:32:47.850Z,8.28
2022-10-23T17:33:50.843Z,9.52
2022-10-23T17:34:53.930Z,8.15
2022-10-23T17:35:57.418Z,8.16
2022-10-23T17:37:00.908Z,9.75
2022-10-23T17:38:04.508Z,8.43
2022-10-23T17:39:08.093Z,8.84
2022-10-23T17:40:11.585Z,8.10
2022-10-23T17:41:15.077Z,9.92
2022-10-23T17:42:18.664Z,7.65
2022-10-23T17:43:21.844Z,7.71
2022-10-23T17:44:25.330Z,9.12
2022-10-23T17:45:28.407Z,9.32
2022-10-23T17:46:32.000Z,10.62
2022-10-23T17:47:35.393Z,10.51
2022-10-23T17:48:41.570Z,9.15
2022-10-23T17:49:46.171Z,8.60
2022-10-23T17:50:49.544Z,8.11
2022-10-23T17:51:52.746Z,8.89
2022-10-23T17:52:56.007Z,10.68
2022-10-23T17:53:59.804Z,11.82
2022-10-23T17:55:03.081Z,12.60
2022-10-23T17:56:06.574Z,11.99
2022-10-23T17:57:10.276Z,10.65
2022-10-23T17:58:13.244Z,13.48
2022-10-23T17:59:16.945Z,11.35
2022-10-23T18:00:20.220Z,10.27
2022-10-23T18:01:23.950Z,14.86
2022-10-23T18:02:27.454Z,12.39
2022-10-23T18:03:30.902Z,12.73
2022-10-23T18:04:33.670Z,11.75
2022-10-23T18:05:36.747Z,11.91
2022-10-23T18:06:39.426Z,12.02
2022-10-23T18:07:43.022Z,15.16
2022-10-23T18:08:45.987Z,13.66
2022-10-23T18:09:49.679Z,10.22
2022-10-23T18:10:53.687Z,12.21
2022-10-23T18:11:57.889Z,11.79
2022-10-23T18:13:02.612Z,16.89
2022-10-23T18:14:05.995Z,13.67
2022-10-23T18:15:10.412Z,16.63
2022-10-23T18:16:13.891Z,15.23
2022-10-23T18:17:17.384Z,12.96
